KABQ

Albuquerque International Sunport/Kirtland Air Force Base

Airport
ICAO code
KABQ
IATA Code
ABQ
Summary
ICAO Region
NAM
ICAO Territory
Location

Bernalillo County, New Mexico

Serving
Albuquerque
Elevation
5355 ft
Coordinates
35° 2' 34" N , 106° 36' 18" W
KCC
Airport RE
Hot and High Operations
Metar
Observation
KABQ 062152Z 33014G24KT 10SM FEW080 11/M07 A2987 RMK AO2 PK WND 27029/2124 SLP090 T01061072
Station
Albuquerque, Albuquerque International Airport
Date/Time
2023-02-06 22:52:00
Wind direction
330°
Wind speed
14 kts
Lowest cloud amount
few clouds
Temperature
10.6°C
Dew point
-7.2°C
Humidity
27%
Weather condition
n/a

Description

Albuquerque International Sunport/Kirtland Air Force Base is a joint public/military (USAF) airport located 3 nm southeast of the central business district of Albuquerque, a city in Bernalillo County, New Mexico.

 

Airport map

Aerial View

SKYbrary Partners:

Safety knowledge contributed by: